createdAt,value
2019-04-07T00:01:38.409Z,40.52
2019-04-07T00:04:13.504Z,42.25
2019-04-07T00:06:46.355Z,42.88
2019-04-07T00:09:20.408Z,41.23
2019-04-07T00:12:13.755Z,42.40
2019-04-07T00:14:46.895Z,42.30
2019-04-07T00:17:27.470Z,41.30
2019-04-07T00:20:00.634Z,42.33
2019-04-07T00:22:34.532Z,40.40
2019-04-07T00:25:28.693Z,42.80
2019-04-07T00:28:12.845Z,31.52
2019-04-07T00:30:42.595Z,40.65
2019-04-07T00:33:15.475Z,41.95
2019-04-07T00:35:58.150Z,43.30
2019-04-07T00:38:30.503Z,43.13
2019-04-07T00:41:03.644Z,40.15
2019-04-07T00:43:36.844Z,42.85
2019-04-07T00:46:09.948Z,47.10
2019-04-07T00:48:42.739Z,44.48
2019-04-07T00:51:15.569Z,43.23
2019-04-07T00:53:48.454Z,44.75
2019-04-07T00:56:21.433Z,42.25
2019-04-07T00:58:54.549Z,43.73
2019-04-07T01:01:32.084Z,43.63
2019-04-07T01:04:01.286Z,44.35
2019-04-07T01:06:30.072Z,42.98
2019-04-07T01:08:59.167Z,43.85
2019-04-07T01:11:28.060Z,43.02
2019-04-07T01:13:56.990Z,44.50
2019-04-07T01:16:26.258Z,45.15
2019-04-07T01:18:55.114Z,45.55
2019-04-07T01:21:23.907Z,43.63
2019-04-07T01:23:53.217Z,44.88
2019-04-07T01:26:22.728Z,44.03
2019-04-07T01:28:53.685Z,45.03
2019-04-07T01:31:22.563Z,45.78
2019-04-07T01:33:52.120Z,44.77
2019-04-07T01:36:21.604Z,44.93
2019-04-07T01:38:51.110Z,44.33
2019-04-07T01:41:24.171Z,45.67
2019-04-07T01:44:06.748Z,44.15
2019-04-07T01:49:28.001Z,43.25
2019-04-07T01:51:59.253Z,42.73
2019-04-07T01:54:29.681Z,43.00
2019-04-07T01:57:18.745Z,44.48
2019-04-07T02:00:01.946Z,43.05
2019-04-07T02:02:49.403Z,45.98
2019-04-07T02:05:37.643Z,44.33
2019-04-07T02:08:24.784Z,46.35
2019-04-07T02:10:55.932Z,45.70
2019-04-07T02:13:36.166Z,46.83
2019-04-07T02:16:06.790Z,46.15
2019-04-07T02:18:44.230Z,46.05
2019-04-07T02:21:20.701Z,45.92
2019-04-07T02:23:54.826Z,46.33
2019-04-07T02:26:50.486Z,48.38
2019-04-07T02:29:21.216Z,48.08
2019-04-07T02:31:58.559Z,45.90
2019-04-07T02:34:45.737Z,46.63
2019-04-07T02:37:31.618Z,43.92
2019-04-07T02:40:03.859Z,47.35
2019-04-07T02:42:48.251Z,47.23
2019-04-07T02:45:19.688Z,44.70
2019-04-07T02:48:01.145Z,46.18
2019-04-07T02:50:48.187Z,44.53
2019-04-07T02:53:21.470Z,44.55
2019-04-07T02:56:02.032Z,43.52
2019-04-07T02:58:35.830Z,44.08
2019-04-07T03:01:22.973Z,43.10
2019-04-07T03:04:09.571Z,45.65
2019-04-07T03:06:51.038Z,45.25
2019-04-07T03:09:18.742Z,43.98
2019-04-07T03:11:49.456Z,45.00
2019-04-07T03:14:19.985Z,44.98
2019-04-07T03:17:02.877Z,44.10
2019-04-07T03:19:33.374Z,44.30
2019-04-07T03:22:16.284Z,44.70
2019-04-07T03:24:46.905Z,44.05
2019-04-07T03:27:32.669Z,43.87
2019-04-07T03:30:03.927Z,43.52
2019-04-07T03:32:49.303Z,43.95
2019-04-07T03:35:30.520Z,43.75
2019-04-07T03:38:02.843Z,43.35
2019-04-07T03:40:36.711Z,42.50
2019-04-07T03:43:10.302Z,42.67
2019-04-07T03:45:49.928Z,42.10
2019-04-07T03:48:21.164Z,40.80
2019-04-07T03:50:57.679Z,41.95
2019-04-07T03:53:37.150Z,41.58
2019-04-07T03:56:08.117Z,40.28
2019-04-07T03:58:50.906Z,40.28
2019-04-07T04:01:24.184Z,40.38
2019-04-07T04:04:10.904Z,45.30
2019-04-07T04:06:57.928Z,43.40
2019-04-07T04:09:39.737Z,46.10
2019-04-07T04:12:13.397Z,52.45
2019-04-07T04:14:44.131Z,48.92
2019-04-07T04:17:13.068Z,51.85
2019-04-07T04:19:42.583Z,51.60
2019-04-07T04:22:12.864Z,51.70
2019-04-07T04:24:42.191Z,51.28
2019-04-07T04:27:11.065Z,50.98
2019-04-07T04:29:39.950Z,51.77
2019-04-07T04:32:09.205Z,51.85
2019-04-07T04:34:38.902Z,51.40
2019-04-07T04:37:08.177Z,52.50
2019-04-07T04:39:38.774Z,54.03
2019-04-07T04:42:08.477Z,53.63
2019-04-07T04:44:37.988Z,51.02
2019-04-07T04:47:06.869Z,51.75
2019-04-07T04:49:35.630Z,52.23
2019-04-07T04:52:05.142Z,55.90
2019-04-07T04:54:34.063Z,51.55
2019-04-07T04:57:06.412Z,52.80
2019-04-07T04:59:33.347Z,53.23
2019-04-07T05:02:02.142Z,52.05
2019-04-07T05:04:31.709Z,49.73
2019-04-07T05:07:01.439Z,52.83
2019-04-07T05:09:42.149Z,53.85
2019-04-07T05:12:04.071Z,52.62
2019-04-07T05:14:32.143Z,56.60
2019-04-07T05:17:00.977Z,55.40
2019-04-07T05:19:29.738Z,55.55
2019-04-07T05:21:59.145Z,56.37
2019-04-07T05:24:28.624Z,56.98
2019-04-07T05:26:57.646Z,55.85
2019-04-07T05:29:26.439Z,53.45
2019-04-07T05:31:55.724Z,57.08
2019-04-07T05:34:24.596Z,57.55
2019-04-07T05:36:53.417Z,56.33
2019-04-07T05:39:22.939Z,57.75
2019-04-07T05:41:52.522Z,57.88
2019-04-07T05:44:21.752Z,58.00
2019-04-07T05:46:51.581Z,58.20
2019-04-07T05:49:23.248Z,60.70
2019-04-07T05:51:50.949Z,60.83
2019-04-07T05:54:20.766Z,61.48
2019-04-07T05:56:50.254Z,57.75
2019-04-07T05:59:19.906Z,58.78
2019-04-07T06:01:51.577Z,59.20
2019-04-07T06:04:19.487Z,59.40
2019-04-07T06:06:51.558Z,59.00
2019-04-07T06:09:20.570Z,62.90
2019-04-07T06:11:49.769Z,60.08
2019-04-07T06:14:19.280Z,59.67
2019-04-07T06:16:52.456Z,58.95
2019-04-07T06:19:19.193Z,61.35
2019-04-07T06:21:48.941Z,62.43
2019-04-07T06:24:21.977Z,62.98
2019-04-07T06:26:50.326Z,59.85
2019-04-07T06:29:19.881Z,62.65
2019-04-07T06:31:49.504Z,64.53
2019-04-07T06:34:18.614Z,64.12
2019-04-07T06:36:51.652Z,67.20
2019-04-07T06:39:19.218Z,65.42
2019-04-07T06:41:48.880Z,65.05
2019-04-07T06:44:20.910Z,65.10
2019-04-07T06:46:49.887Z,68.55
2019-04-07T06:49:26.865Z,65.45
2019-04-07T06:52:04.814Z,68.78
2019-04-07T06:54:44.886Z,67.55
2019-04-07T06:57:15.452Z,67.62
2019-04-07T06:59:48.996Z,66.33
2019-04-07T07:02:23.989Z,66.33
2019-04-07T07:05:13.245Z,67.75
2019-04-07T07:07:43.548Z,66.42
2019-04-07T07:10:25.264Z,67.53
2019-04-07T07:12:52.627Z,63.17
2019-04-07T07:15:36.460Z,68.00
2019-04-07T07:18:24.094Z,65.28
2019-04-07T07:21:04.029Z,63.95
2019-04-07T07:23:36.404Z,64.17
2019-04-07T07:26:06.056Z,67.20
2019-04-07T07:28:36.039Z,64.42
2019-04-07T07:31:05.758Z,65.17
2019-04-07T07:33:34.517Z,66.07
2019-04-07T07:36:03.459Z,65.97
2019-04-07T07:38:33.523Z,65.32
2019-04-07T07:41:04.489Z,63.68
2019-04-07T07:43:33.774Z,63.17
2019-04-07T07:46:03.177Z,63.00
2019-04-07T07:48:35.714Z,62.70
2019-04-07T07:53:34.163Z,63.75
2019-04-07T07:56:03.190Z,65.97
2019-04-07T07:58:33.652Z,65.57
2019-04-07T08:01:03.206Z,64.58
2019-04-07T08:03:37.552Z,63.42
2019-04-07T08:06:08.247Z,65.52
2019-04-07T08:08:37.276Z,64.87
2019-04-07T08:11:06.774Z,65.45
2019-04-07T08:13:42.251Z,65.60
2019-04-07T08:16:06.367Z,66.72
2019-04-07T08:18:37.905Z,65.20
2019-04-07T08:21:06.659Z,65.32
2019-04-07T08:23:36.260Z,65.55
2019-04-07T08:26:06.000Z,64.20
2019-04-07T08:28:35.919Z,64.07
2019-04-07T08:31:05.592Z,65.03
2019-04-07T08:33:35.450Z,65.80
2019-04-07T08:36:04.565Z,67.78
2019-04-07T08:38:35.404Z,65.03
2019-04-07T08:41:07.951Z,63.52
2019-04-07T08:43:35.163Z,70.12
2019-04-07T08:46:05.084Z,67.92
2019-04-07T08:48:34.643Z,68.17
2019-04-07T08:51:03.621Z,68.05
2019-04-07T08:53:32.934Z,68.65
2019-04-07T08:56:01.823Z,66.50
2019-04-07T08:58:36.157Z,67.45
2019-04-07T09:01:02.085Z,66.33
2019-04-07T09:03:33.071Z,64.67
2019-04-07T09:06:03.026Z,65.10
2019-04-07T09:08:34.705Z,66.45
2019-04-07T09:11:20.004Z,66.57
2019-04-07T09:13:54.899Z,66.90
2019-04-07T09:16:33.551Z,67.32
2019-04-07T09:19:07.417Z,65.20
2019-04-07T09:21:41.234Z,63.80
2019-04-07T09:24:13.069Z,67.70
2019-04-07T09:26:50.046Z,65.95
2019-04-07T09:29:31.363Z,66.60
2019-04-07T09:32:19.795Z,67.97
2019-04-07T09:35:07.738Z,67.25
2019-04-07T09:37:43.471Z,65.60
2019-04-07T09:40:17.603Z,69.17
2019-04-07T09:43:04.126Z,66.28
2019-04-07T09:45:52.895Z,68.45
2019-04-07T09:48:30.152Z,65.57
2019-04-07T09:51:17.644Z,67.53
2019-04-07T09:53:50.217Z,64.70
2019-04-07T09:56:20.357Z,74.32
2019-04-07T09:58:54.602Z,74.53
2019-04-07T10:01:30.832Z,65.87
2019-04-07T10:04:13.523Z,80.35
2019-04-07T10:06:44.182Z,65.12
2019-04-07T10:09:14.814Z,63.68
2019-04-07T10:11:49.466Z,67.62
2019-04-07T10:14:27.757Z,62.78
2019-04-07T10:16:58.260Z,63.73
2019-04-07T10:19:35.171Z,63.45
2019-04-07T10:22:21.860Z,62.67
2019-04-07T10:24:53.597Z,64.75
2019-04-07T10:27:34.623Z,60.25
2019-04-07T10:30:05.735Z,58.27
2019-04-07T10:32:53.491Z,61.53
2019-04-07T10:35:30.695Z,60.05
2019-04-07T10:38:01.980Z,60.33
2019-04-07T10:40:51.306Z,60.65
2019-04-07T10:43:25.059Z,58.28
2019-04-07T10:46:02.273Z,54.77
2019-04-07T10:48:33.266Z,54.85
2019-04-07T10:51:10.530Z,55.05
2019-04-07T10:53:47.365Z,51.68
2019-04-07T10:56:30.874Z,49.38
2019-04-07T10:59:17.509Z,51.20
2019-04-07T11:02:04.415Z,49.95
2019-04-07T11:04:50.878Z,48.38
2019-04-07T11:07:30.328Z,46.25
2019-04-07T11:10:01.243Z,46.75
2019-04-07T11:12:48.343Z,44.75
2019-04-07T11:15:28.059Z,45.08
2019-04-07T11:18:14.871Z,43.70
2019-04-07T11:20:45.573Z,45.43
2019-04-07T11:23:28.513Z,42.05
2019-04-07T11:25:59.419Z,43.70
2019-04-07T11:28:32.655Z,42.50
2019-04-07T11:31:03.866Z,37.08
2019-04-07T11:36:24.466Z,87.12
2019-04-07T11:39:11.935Z,41.77
2019-04-07T11:41:48.295Z,39.80
2019-04-07T11:44:21.775Z,35.30
2019-04-07T11:46:53.306Z,31.57
2019-04-07T11:49:41.493Z,32.63
2019-04-07T11:52:23.615Z,32.73
2019-04-07T11:55:06.312Z,30.80
2019-04-07T11:58:06.561Z,29.65
2019-04-07T12:00:30.026Z,30.95
2019-04-07T12:03:12.818Z,35.50
2019-04-07T12:05:46.113Z,40.35
2019-04-07T12:08:24.582Z,32.75
2019-04-07T12:11:13.301Z,31.93
2019-04-07T12:13:48.141Z,33.13
2019-04-07T12:16:18.742Z,34.00
2019-04-07T12:18:53.387Z,34.30
2019-04-07T12:21:25.576Z,28.38
2019-04-07T12:24:06.034Z,26.25
2019-04-07T12:26:54.938Z,25.90
2019-04-07T12:29:25.509Z,27.93
2019-04-07T12:31:59.666Z,26.60
2019-04-07T12:34:47.728Z,24.32
2019-04-07T12:37:18.776Z,24.30
2019-04-07T12:39:52.262Z,21.95
2019-04-07T12:42:31.589Z,20.50
2019-04-07T12:45:11.197Z,21.50
2019-04-07T12:47:47.829Z,20.32
2019-04-07T12:50:35.476Z,19.57
2019-04-07T12:53:22.810Z,19.92
2019-04-07T12:56:03.233Z,18.85
2019-04-07T12:58:33.742Z,18.20
2019-04-07T13:01:14.044Z,17.87
2019-04-07T13:03:42.504Z,17.10
2019-04-07T13:06:29.833Z,17.73
2019-04-07T13:09:00.738Z,16.85
2019-04-07T13:11:42.961Z,17.90
2019-04-07T13:14:10.052Z,17.15
2019-04-07T13:16:50.217Z,16.70
2019-04-07T13:19:36.272Z,16.02
2019-04-07T13:22:10.239Z,15.48
2019-04-07T13:24:58.136Z,16.27
2019-04-07T13:30:31.430Z,16.87
2019-04-07T13:33:03.222Z,15.50
2019-04-07T13:35:40.066Z,14.13
2019-04-07T13:38:13.463Z,18.07
2019-04-07T13:40:50.048Z,18.65
2019-04-07T13:43:23.354Z,18.65
2019-04-07T13:45:56.904Z,21.35
2019-04-07T13:48:27.473Z,19.70
2019-04-07T13:50:57.984Z,23.47
2019-04-07T13:53:39.963Z,19.45
2019-04-07T13:56:27.015Z,18.05
2019-04-07T13:59:13.696Z,19.48
2019-04-07T14:01:45.120Z,19.98
2019-04-07T14:04:27.980Z,18.37
2019-04-07T14:07:17.618Z,18.52
2019-04-07T14:10:05.331Z,15.20
2019-04-07T14:12:43.038Z,16.45
2019-04-07T14:15:16.941Z,15.95
2019-04-07T14:18:00.108Z,14.98
2019-04-07T14:20:33.100Z,15.10
2019-04-07T14:23:13.880Z,13.40
2019-04-07T14:25:48.250Z,13.90
2019-04-07T14:28:22.199Z,13.78
2019-04-07T14:31:01.713Z,13.30
2019-04-07T14:33:49.168Z,14.60
2019-04-07T14:36:22.663Z,14.65
2019-04-07T14:38:55.894Z,15.00
2019-04-07T14:41:42.329Z,15.45
2019-04-07T14:44:16.060Z,15.35
2019-04-07T14:47:03.267Z,15.43
2019-04-07T14:49:39.749Z,13.00
2019-04-07T14:52:23.096Z,15.20
2019-04-07T14:54:56.946Z,16.45
2019-04-07T14:57:29.128Z,17.27
2019-04-07T15:00:03.370Z,19.67
2019-04-07T15:02:33.468Z,17.67
2019-04-07T15:05:24.074Z,17.17
2019-04-07T15:08:00.047Z,19.10
2019-04-07T15:10:34.052Z,17.92
2019-04-07T15:13:05.322Z,21.77
2019-04-07T15:15:34.399Z,27.52
2019-04-07T15:18:03.754Z,28.32
2019-04-07T15:20:32.689Z,29.48
2019-04-07T15:23:01.923Z,29.87
2019-04-07T15:25:31.976Z,30.60
2019-04-07T15:28:01.284Z,29.50
2019-04-07T15:30:31.111Z,29.20
2019-04-07T15:33:02.442Z,31.85
2019-04-07T15:35:30.998Z,38.83
2019-04-07T15:37:59.812Z,40.10
2019-04-07T15:40:30.822Z,40.73
2019-04-07T15:43:03.886Z,41.42
2019-04-07T15:45:30.079Z,39.27
2019-04-07T15:48:00.703Z,35.52
2019-04-07T15:50:30.461Z,33.05
2019-04-07T15:53:00.126Z,31.05
2019-04-07T15:55:43.972Z,29.82
2019-04-07T15:57:59.720Z,26.70
2019-04-07T16:00:32.318Z,25.72
2019-04-07T16:03:00.115Z,25.48
2019-04-07T16:05:30.017Z,23.62
2019-04-07T16:08:18.477Z,21.77
2019-04-07T16:10:47.760Z,19.87
2019-04-07T16:13:17.365Z,19.05
2019-04-07T16:15:50.644Z,19.32
2019-04-07T16:18:16.953Z,17.90
2019-04-07T16:20:45.796Z,15.58
2019-04-07T16:23:16.843Z,14.95
2019-04-07T16:25:46.335Z,16.50
2019-04-07T16:28:16.233Z,17.05
2019-04-07T16:30:48.534Z,18.75
2019-04-07T16:33:16.338Z,17.73
2019-04-07T16:35:50.996Z,18.23
2019-04-07T16:38:16.350Z,18.75
2019-04-07T16:40:45.242Z,18.57
2019-04-07T16:43:16.460Z,17.10
2019-04-07T16:45:45.907Z,16.52
2019-04-07T16:48:16.070Z,16.48
2019-04-07T16:50:46.271Z,17.17
2019-04-07T16:53:18.414Z,18.27
2019-04-07T16:55:50.558Z,26.27
2019-04-07T16:58:18.305Z,27.25
2019-04-07T17:00:47.658Z,27.30
2019-04-07T17:03:17.306Z,23.98
2019-04-07T17:05:46.406Z,23.65
2019-04-07T17:08:18.976Z,26.25
2019-04-07T17:10:46.597Z,31.35
2019-04-07T17:13:20.646Z,30.00
2019-04-07T17:15:46.044Z,28.05
2019-04-07T17:18:33.393Z,32.58
2019-04-07T17:21:02.474Z,30.77
2019-04-07T17:23:32.308Z,32.25
2019-04-07T17:26:03.236Z,34.03
2019-04-07T17:28:32.491Z,36.35
2019-04-07T17:31:01.818Z,45.78
2019-04-07T17:33:36.830Z,51.77
2019-04-07T17:36:07.893Z,45.88
2019-04-07T17:38:41.710Z,49.45
2019-04-07T17:41:15.005Z,50.83
2019-04-07T17:46:26.149Z,63.30
2019-04-07T17:48:58.526Z,68.80
2019-04-07T17:51:37.710Z,73.12
2019-04-07T17:54:20.895Z,74.27
2019-04-07T17:56:48.493Z,77.55
2019-04-07T17:59:28.233Z,77.82
2019-04-07T18:02:02.818Z,80.20
2019-04-07T18:04:43.796Z,76.97
2019-04-07T18:07:25.472Z,78.85
2019-04-07T18:09:59.530Z,78.17
2019-04-07T18:12:49.565Z,75.00
2019-04-07T18:15:27.408Z,75.03
2019-04-07T18:18:11.004Z,77.50
2019-04-07T18:20:54.596Z,77.30
2019-04-07T18:23:25.025Z,77.50
2019-04-07T18:26:21.623Z,79.12
2019-04-07T18:29:14.730Z,81.25
2019-04-07T18:32:12.104Z,83.00
2019-04-07T18:35:02.444Z,85.57
2019-04-07T18:37:52.788Z,88.72
2019-04-07T18:40:30.736Z,86.97
2019-04-07T18:43:02.170Z,88.27
2019-04-07T18:45:38.369Z,93.40
2019-04-07T18:48:26.503Z,91.40
2019-04-07T18:54:12.089Z,91.97
2019-04-07T18:57:30.634Z,93.40
2019-04-07T19:00:41.270Z,92.75
2019-04-07T19:03:16.389Z,98.03
2019-04-07T19:05:49.466Z,100.05
2019-04-07T19:08:37.677Z,100.62
2019-04-07T19:11:28.248Z,101.05
2019-04-07T19:14:20.457Z,103.15
2019-04-07T19:17:06.521Z,99.40
2019-04-07T19:20:07.312Z,102.38
2019-04-07T19:22:51.346Z,98.92
2019-04-07T19:25:29.141Z,103.22
2019-04-07T19:28:03.430Z,101.58
2019-04-07T19:30:57.208Z,95.97
2019-04-07T19:33:26.228Z,97.50
2019-04-07T19:36:20.524Z,100.40
2019-04-07T19:39:05.071Z,100.85
2019-04-07T19:42:07.898Z,97.53
2019-04-07T19:44:57.341Z,96.97
2019-04-07T19:48:11.503Z,95.42
2019-04-07T19:50:45.510Z,97.02
2019-04-07T19:53:45.566Z,90.77
2019-04-07T19:56:57.583Z,98.10
2019-04-07T19:59:55.527Z,96.65
2019-04-07T20:02:39.047Z,101.07
2019-04-07T20:05:19.710Z,99.60
2019-04-07T20:08:39.456Z,99.35
2019-04-07T20:11:43.717Z,100.53
2019-04-07T20:15:08.892Z,102.58
2019-04-07T20:18:00.708Z,103.02
2019-04-07T20:20:57.224Z,104.12
2019-04-07T20:23:54.385Z,102.35
2019-04-07T20:26:34.805Z,99.85
2019-04-07T20:29:12.035Z,105.65
2019-04-07T20:32:24.727Z,104.35
2019-04-07T20:35:14.607Z,105.58
2019-04-07T20:38:17.992Z,106.75
2019-04-07T20:41:09.997Z,105.47
2019-04-07T20:44:19.583Z,102.67
2019-04-07T20:47:52.242Z,105.27
2019-04-07T20:51:17.413Z,103.58
2019-04-07T20:53:50.329Z,105.55
2019-04-07T20:56:44.329Z,105.65
2019-04-07T20:59:46.965Z,106.12
2019-04-07T21:02:45.389Z,112.30
2019-04-07T21:05:44.310Z,108.32
2019-04-07T21:08:30.190Z,110.60
2019-04-07T21:11:31.359Z,110.03
2019-04-07T21:14:22.841Z,111.95
2019-04-07T21:17:33.976Z,114.70
2019-04-07T21:20:51.131Z,114.08
2019-04-07T21:23:55.256Z,113.68
2019-04-07T21:26:59.024Z,113.80
2019-04-07T21:29:43.381Z,113.62
2019-04-07T21:32:49.496Z,115.72
2019-04-07T21:35:38.324Z,118.02
2019-04-07T21:38:37.839Z,118.13
2019-04-07T21:41:27.187Z,118.53
2019-04-07T21:43:59.763Z,121.57
2019-04-07T21:46:46.780Z,120.67
2019-04-07T21:49:21.046Z,124.78
2019-04-07T21:52:28.097Z,125.10
2019-04-07T21:55:46.183Z,126.92
2019-04-07T21:58:31.928Z,131.55
2019-04-07T22:01:08.048Z,128.12
2019-04-07T22:03:49.680Z,131.78
2019-04-07T22:06:40.162Z,123.87
2019-04-07T22:09:18.143Z,127.60
2019-04-07T22:11:47.563Z,128.12
2019-04-07T22:14:55.165Z,125.70
2019-04-07T22:18:07.520Z,120.15
2019-04-07T22:20:37.271Z,122.47
2019-04-07T22:23:32.479Z,122.92
2019-04-07T22:25:57.095Z,114.67
2019-04-07T22:28:49.126Z,118.42
2019-04-07T22:31:29.013Z,113.60
2019-04-07T22:34:14.849Z,122.65
2019-04-07T22:37:12.166Z,113.37
2019-04-07T22:39:42.161Z,119.70
2019-04-07T22:42:45.500Z,116.37
2019-04-07T22:45:14.912Z,121.57
2019-04-07T22:47:45.465Z,119.45
2019-04-07T22:50:15.054Z,121.80
2019-04-07T22:53:09.439Z,118.57
2019-04-07T22:56:04.811Z,110.55
2019-04-07T22:58:30.679Z,114.52
2019-04-07T23:01:00.612Z,109.67
2019-04-07T23:04:05.566Z,107.17
2019-04-07T23:06:52.296Z,114.35
2019-04-07T23:09:17.681Z,112.72
2019-04-07T23:11:46.515Z,116.57
2019-04-07T23:14:21.141Z,114.42
2019-04-07T23:16:49.999Z,115.15
2019-04-07T23:19:18.948Z,118.97
2019-04-07T23:25:23.726Z,115.22
2019-04-07T23:28:10.294Z,119.60
2019-04-07T23:31:07.705Z,113.32
2019-04-07T23:36:45.693Z,115.92
2019-04-07T23:39:27.876Z,116.62
2019-04-07T23:41:57.481Z,116.33
2019-04-07T23:44:26.485Z,117.30
2019-04-07T23:46:55.687Z,118.97
2019-04-07T23:49:24.540Z,115.50
2019-04-07T23:51:53.774Z,122.15
2019-04-07T23:54:26.867Z,118.17
2019-04-07T23:56:56.099Z,113.03
2019-04-07T23:59:25.050Z,118.28
